KDVN/DVN METAR and TAF weather

Enter ICAO airport designator
Station Type Date Time Source
KDVN METAR 2019/06/27 09:52 UTC NOAA

KDVN 270952Z AUTO 20005KT 10SM CLR 21/19 A3013 RMK AO2 SLP193 T02110189


Station Type Date Time Source
KDVN Decoded METAR 2019/06/27 09:52 UTC NOAA

DAVENPORT MUNICIPAL AIRPORT, IA, United States (KDVN) 41-37N 90-35W 228M
Jun 27, 2019 - 05:52 AM EDT / 2019.06.27 0952 UTC
Wind: from the SSW (200 degrees) at 6 MPH (5 KT):0
Visibility: 10 mile(s):0
Sky conditions: clear
Temperature: 70.0 F (21.1 C)
Dew Point: 66.0 F (18.9 C)
Relative Humidity: 87%
Pressure (altimeter): 30.13 in. Hg (1020 hPa)
ob: KDVN 270952Z AUTO 20005KT 10SM CLR 21/19 A3013 RMK AO2 SLP193 T02110189
cycle: 10

Station Type Date Time Source
KDVN TAF UTC NOAA

Error!

Example: see airport list